Time;durP1;ratioP1;P1;durP2;ratioP2;P2;SDS_P1;SDS_P2;PMS_P1;PMS_P2;Temp;Humidity;BMP_temperature;BMP_pressure;BME280_temperature;BME280_humidity;BME280_pressure;Samples;Min_cycle;Max_cycle;Signal;HPM_P1;HPM_P2
2022/07/19 00:01:21;;;;;;;1.58;1.48;;;;;;;25.49;41.37;100602.75;5032847;28;20397;-73
2022/07/19 00:03:46;;;;;;;3.13;1.50;;;;;;;25.46;41.95;100598.69;5048065;28;20411;-73
2022/07/19 00:06:11;;;;;;;1.53;1.53;;;;;;;25.46;42.43;100612.56;5030831;28;20419;-72
2022/07/19 00:08:37;;;;;;;3.10;1.40;;;;;;;25.44;42.70;100602.94;5033292;28;20402;-74
2022/07/19 00:11:02;;;;;;;3.43;1.07;;;;;;;25.40;43.12;100607.56;5030737;28;20728;-73
2022/07/19 00:13:28;;;;;;;3.13;1.30;;;;;;;25.38;43.28;100605.13;5032408;28;20434;-73
2022/07/19 00:15:53;;;;;;;2.70;1.33;;;;;;;25.39;43.43;100603.19;5032509;28;20477;-72
2022/07/19 00:18:18;;;;;;;3.47;1.30;;;;;;;25.37;43.68;100597.13;5032128;28;20839;-73
2022/07/19 00:20:44;;;;;;;2.33;1.70;;;;;;;25.36;44.19;100598.31;5032528;28;20395;-73
2022/07/19 00:23:09;;;;;;;4.23;1.50;;;;;;;25.32;44.26;100591.81;5032673;28;20874;-73
2022/07/19 00:25:34;;;;;;;4.37;1.77;;;;;;;25.25;44.77;100595.94;5029716;28;20740;-73
2022/07/19 00:28:00;;;;;;;3.20;1.55;;;;;;;25.25;44.70;100595.94;5031721;28;20882;-72
2022/07/19 00:30:25;;;;;;;2.10;1.35;;;;;;;25.20;45.29;100590.59;5032406;28;20890;-73
2022/07/19 00:32:50;;;;;;;4.10;1.50;;;;;;;25.12;45.73;100588.72;5031296;28;20427;-73
2022/07/19 00:35:16;;;;;;;2.07;1.50;;;;;;;24.99;46.17;100592.56;5047223;28;20418;-73
2022/07/19 00:37:41;;;;;;;2.10;1.20;;;;;;;24.93;46.69;100590.34;5032250;28;20403;-73
2022/07/19 00:40:08;;;;;;;4.50;1.50;;;;;;;24.87;46.55;100594.44;5031662;28;20395;-73
2022/07/19 00:42:33;;;;;;;2.77;1.40;;;;;;;24.85;46.70;100599.53;5032919;28;20460;-73
2022/07/19 00:44:58;;;;;;;1.55;1.45;;;;;;;24.76;46.98;100594.03;5032014;28;20758;-73
2022/07/19 00:47:24;;;;;;;2.55;1.30;;;;;;;24.77;47.07;100603.94;5032193;28;20395;-73
2022/07/19 00:49:49;;;;;;;1.50;1.38;;;;;;;24.77;47.20;100590.91;5031189;28;20938;-73
2022/07/19 00:52:17;;;;;;;6.97;2.30;;;;;;;24.82;46.85;100591.84;5040207;28;20395;-73
2022/07/19 00:54:43;;;;;;;4.50;1.70;;;;;;;24.75;46.80;100586.84;5031688;28;20399;-73
2022/07/19 00:57:10;;;;;;;2.00;1.40;;;;;;;24.70;46.66;100595.34;5031690;28;20823;-73
2022/07/19 00:59:36;;;;;;;2.67;1.75;;;;;;;24.64;47.09;100588.38;5038792;28;20417;-73
2022/07/19 01:02:01;;;;;;;3.00;1.40;;;;;;;24.50;47.54;100588.59;5031837;28;20395;-73
2022/07/19 01:04:27;;;;;;;5.20;1.60;;;;;;;24.51;47.89;100589.44;5031545;28;20893;-73
2022/07/19 01:06:53;;;;;;;5.05;1.45;;;;;;;24.49;48.09;100592.53;5031483;28;20415;-72
2022/07/19 01:09:18;;;;;;;3.60;1.52;;;;;;;24.45;48.68;100599.91;5030458;28;20840;-73
2022/07/19 01:11:43;;;;;;;4.23;1.77;;;;;;;24.46;48.58;100595.16;5031689;28;20387;-73
2022/07/19 01:14:09;;;;;;;2.93;1.63;;;;;;;24.44;49.22;100589.13;5032164;28;20403;-73
2022/07/19 01:16:34;;;;;;;3.90;1.70;;;;;;;24.45;49.06;100593.53;5031944;28;20418;-73
2022/07/19 01:18:59;;;;;;;2.50;1.77;;;;;;;24.45;49.18;100590.78;5031189;28;20399;-73
2022/07/19 01:21:26;;;;;;;1.60;1.50;;;;;;;24.43;49.25;100599.44;5031652;28;20470;-73
2022/07/19 01:23:51;;;;;;;3.47;1.60;;;;;;;24.37;49.13;100602.72;5031470;28;20391;-73
2022/07/19 01:26:17;;;;;;;2.40;1.55;;;;;;;24.35;48.67;100591.16;5031358;28;20406;-73
2022/07/19 01:28:44;;;;;;;8.40;2.37;;;;;;;24.40;47.02;100590.97;5030692;28;20465;-73
2022/07/19 01:31:09;;;;;;;4.10;1.77;;;;;;;24.37;46.42;100597.19;5031622;28;20388;-73
2022/07/19 01:33:45;;;;;;;4.00;1.80;;;;;;;24.27;46.53;100595.56;5033224;28;20383;-72
2022/07/19 01:36:11;;;;;;;3.67;1.80;;;;;;;24.15;46.33;100596.28;5031431;28;20500;-73
2022/07/19 01:38:38;;;;;;;3.27;1.57;;;;;;;24.06;46.30;100597.44;5031441;28;20532;-73
2022/07/19 01:41:04;;;;;;;6.55;2.50;;;;;;;23.94;46.72;100595.34;5031082;28;20399;-73
2022/07/19 01:43:29;;;;;;;3.95;1.63;;;;;;;23.89;46.74;100594.72;5031383;28;20442;-73
2022/07/19 01:45:55;;;;;;;2.33;2.00;;;;;;;23.77;47.34;100593.47;5031311;28;20403;-72
2022/07/19 01:48:21;;;;;;;4.53;1.70;;;;;;;23.71;47.63;100602.28;5031321;28;20492;-73
2022/07/19 01:50:46;;;;;;;1.65;1.55;;;;;;;23.58;49.44;100594.94;5046345;28;20496;-73
2022/07/19 01:53:11;;;;;;;5.17;1.93;;;;;;;23.48;50.48;100598.88;5031267;28;20944;-73
2022/07/19 01:55:37;;;;;;;5.63;1.77;;;;;;;23.54;50.05;100603.13;5030739;28;20975;-73
2022/07/19 01:58:02;;;;;;;3.03;1.70;;;;;;;23.59;49.88;100604.88;5046576;28;20921;-73
2022/07/19 02:00:27;;;;;;;1.37;1.27;;;;;;;23.56;50.51;100592.53;5030894;28;20395;-72
2022/07/19 02:02:53;;;;;;;1.60;1.50;;;;;;;23.45;51.38;100590.41;5031108;28;20402;-73
2022/07/19 02:05:18;;;;;;;2.00;1.27;;;;;;;23.35;51.77;100588.75;5030999;28;20434;-74
2022/07/19 02:07:43;;;;;;;1.50;1.40;;;;;;;23.36;51.71;100586.81;5031465;28;20403;-74
2022/07/19 02:10:09;;;;;;;3.70;1.48;;;;;;;23.37;51.54;100574.63;5030787;28;20409;-73
2022/07/19 02:12:34;;;;;;;3.80;1.50;;;;;;;23.40;51.67;100573.97;5030936;28;20398;-73
2022/07/19 02:15:00;;;;;;;3.10;1.70;;;;;;;23.39;51.51;100562.09;5031119;28;20391;-73
2022/07/19 02:17:25;;;;;;;1.17;1.10;;;;;;;23.45;51.66;100569.09;5030859;28;20419;-73
2022/07/19 02:19:50;;;;;;;3.47;1.80;;;;;;;23.50;51.01;100560.66;5030916;28;20486;-73
2022/07/19 02:22:15;;;;;;;2.87;1.43;;;;;;;23.47;51.00;100560.50;5030395;28;20411;-73
2022/07/19 02:24:42;;;;;;;2.90;1.87;;;;;;;23.40;50.96;100557.38;5031742;28;20399;-73
2022/07/19 02:27:11;;;;;;;3.55;1.48;;;;;;;23.34;50.50;100556.75;5046101;28;20399;-73
2022/07/19 02:29:36;;;;;;;1.70;1.60;;;;;;;23.23;50.73;100550.72;5030440;28;20407;-73
2022/07/19 02:32:01;;;;;;;3.10;1.95;;;;;;;23.14;50.57;100552.69;5029534;28;20406;-72
2022/07/19 02:34:27;;;;;;;3.30;1.70;;;;;;;23.15;50.25;100550.75;5030825;28;20391;-74
2022/07/19 02:36:52;;;;;;;12.23;1.70;;;;;;;23.18;49.87;100544.56;5030033;28;20454;-73
2022/07/19 02:39:17;;;;;;;3.23;1.53;;;;;;;23.20;50.31;100547.81;5030566;28;20407;-73
2022/07/19 02:41:43;;;;;;;2.07;1.63;;;;;;;23.19;50.45;100546.16;5041365;28;20406;-73
2022/07/19 02:44:08;;;;;;;2.07;1.77;;;;;;;23.17;50.79;100546.50;5034145;28;20407;-73
2022/07/19 02:46:34;;;;;;;2.13;1.47;;;;;;;23.11;51.29;100539.53;5033888;28;20464;-73
2022/07/19 02:48:59;;;;;;;4.47;1.45;;;;;;;23.05;51.61;100542.78;5033913;28;20399;-73
2022/07/19 02:51:25;;;;;;;1.60;1.50;;;;;;;22.95;51.96;100543.09;5034187;28;20901;-73
2022/07/19 02:53:51;;;;;;;2.70;1.70;;;;;;;22.93;52.11;100553.66;5034120;28;20878;-73
2022/07/19 02:56:16;;;;;;;2.20;1.80;;;;;;;22.91;51.96;100551.22;5032686;28;20928;-73
2022/07/19 02:58:41;;;;;;;3.07;1.60;;;;;;;22.92;51.64;100546.53;5034314;28;20399;-73
2022/07/19 03:01:07;;;;;;;2.87;1.67;;;;;;;22.95;51.67;100548.63;5033497;28;20772;-74
2022/07/19 03:03:44;;;;;;;2.63;1.80;;;;;;;22.95;51.35;100546.69;5033896;28;20392;-73
2022/07/19 03:06:10;;;;;;;2.78;1.92;;;;;;;22.98;50.90;100554.31;5033898;28;20411;-73
2022/07/19 03:08:36;;;;;;;2.50;1.70;;;;;;;23.00;50.84;100540.97;5033633;28;20478;-73
2022/07/19 03:11:02;;;;;;;2.80;2.03;;;;;;;22.94;50.78;100556.09;5033660;28;20471;-74
2022/07/19 03:13:27;;;;;;;3.07;1.70;;;;;;;22.85;51.23;100549.78;5048869;28;20395;-73
2022/07/19 03:15:52;;;;;;;3.35;1.50;;;;;;;22.84;51.46;100544.56;5034076;28;20419;-73
2022/07/19 03:18:18;;;;;;;2.40;1.87;;;;;;;22.89;51.83;100544.38;5032666;28;20973;-74
2022/07/19 03:20:43;;;;;;;2.10;1.73;;;;;;;22.77;52.92;100542.28;5033880;28;20388;-73
2022/07/19 03:23:08;;;;;;;6.37;2.23;;;;;;;22.65;53.30;100544.84;5048542;28;20439;-73
2022/07/19 03:25:34;;;;;;;2.30;1.90;;;;;;;22.69;53.12;100548.59;5033523;28;20470;-73
2022/07/19 03:27:59;;;;;;;3.93;1.80;;;;;;;22.64;53.30;100543.22;5033425;28;20391;-73
2022/07/19 03:30:25;;;;;;;3.50;1.75;;;;;;;22.61;53.53;100549.38;5033152;28;20395;-73
2022/07/19 03:32:50;;;;;;;3.37;1.80;;;;;;;22.59;53.35;100546.94;5042382;28;20399;-73
2022/07/19 03:35:15;;;;;;;2.37;1.90;;;;;;;22.56;53.36;100547.56;5032640;28;20395;-73
2022/07/19 03:37:40;;;;;;;2.23;2.10;;;;;;;22.56;53.13;100544.00;5033327;28;20490;-73
2022/07/19 03:40:06;;;;;;;4.87;1.77;;;;;;;22.49;53.08;100551.97;5033246;28;20424;-73
2022/07/19 03:42:32;;;;;;;1.77;1.67;;;;;;;22.48;52.94;100553.09;5032473;28;20383;-74
2022/07/19 03:44:57;;;;;;;2.73;1.70;;;;;;;22.43;53.05;100553.22;5032974;28;20399;-73
2022/07/19 03:47:22;;;;;;;2.23;1.73;;;;;;;22.38;52.88;100559.72;5031886;28;20399;-73
2022/07/19 03:49:48;;;;;;;2.93;1.83;;;;;;;22.38;52.71;100545.94;5040248;28;20403;-73
2022/07/19 03:52:13;;;;;;;4.37;2.27;;;;;;;22.36;52.39;100553.69;5032705;28;20435;-73
2022/07/19 03:54:39;;;;;;;3.92;1.92;;;;;;;22.37;52.03;100554.50;5033150;28;20387;-73
2022/07/19 03:57:04;;;;;;;3.60;2.10;;;;;;;22.37;51.99;100560.84;5032931;28;20411;-73
2022/07/19 03:59:29;;;;;;;2.07;1.87;;;;;;;22.39;51.59;100561.38;5032473;28;20395;-74
2022/07/19 04:01:55;;;;;;;2.00;1.90;;;;;;;22.40;52.16;100564.91;5017302;28;20392;-73
2022/07/19 04:04:20;;;;;;;4.50;1.80;;;;;;;22.33;52.20;100567.34;5033102;28;20395;-73
2022/07/19 04:06:46;;;;;;;3.67;1.80;;;;;;;22.33;52.48;100570.13;5047874;28;20833;-73
2022/07/19 04:09:11;;;;;;;2.33;1.80;;;;;;;22.28;52.58;100573.81;5031635;28;20405;-73
2022/07/19 04:11:37;;;;;;;2.10;1.90;;;;;;;22.24;52.81;100570.06;5033148;28;20387;-73
2022/07/19 04:14:02;;;;;;;3.30;1.90;;;;;;;22.18;52.68;100571.34;5032429;28;20886;-73
2022/07/19 04:16:28;;;;;;;4.27;2.00;;;;;;;22.14;52.81;100568.41;5032771;28;20494;-73
2022/07/19 04:18:53;;;;;;;3.23;2.00;;;;;;;22.21;52.49;100573.47;5028780;28;20494;-74
2022/07/19 04:21:18;;;;;;;2.67;2.20;;;;;;;22.16;52.36;100577.19;5031273;28;20395;-73
2022/07/19 04:23:44;;;;;;;2.17;1.85;;;;;;;22.08;52.55;100579.91;5033046;28;20913;-73
2022/07/19 04:26:09;;;;;;;3.57;2.07;;;;;;;22.04;52.76;100574.22;5032374;28;20387;-73
2022/07/19 04:28:34;;;;;;;2.40;1.87;;;;;;;22.04;52.60;100579.75;5047615;28;20392;-73
2022/07/19 04:31:00;;;;;;;5.43;2.07;;;;;;;22.07;52.47;100579.09;5031435;28;20433;-73
2022/07/19 04:33:25;;;;;;;4.27;2.10;;;;;;;22.07;52.48;100572.75;5032250;28;20842;-72
2022/07/19 04:35:51;;;;;;;2.72;1.90;;;;;;;22.05;52.57;100578.63;5047200;28;20454;-73
2022/07/19 04:38:17;;;;;;;2.57;2.33;;;;;;;22.02;52.70;100578.44;5031682;28;20479;-73
2022/07/19 04:40:42;;;;;;;3.75;1.90;;;;;;;22.02;52.70;100582.00;5032529;28;20410;-73
2022/07/19 04:43:07;;;;;;;3.20;1.90;;;;;;;22.06;52.57;100588.50;5024214;28;20421;-73
2022/07/19 04:45:32;;;;;;;3.53;1.73;;;;;;;22.10;52.50;100580.41;5030356;28;20419;-73
2022/07/19 04:47:58;;;;;;;2.53;2.03;;;;;;;22.16;52.31;100574.41;5047573;28;20403;-72
2022/07/19 04:50:23;;;;;;;2.50;2.10;;;;;;;22.16;52.09;100571.66;5030892;28;20505;-73
2022/07/19 04:52:49;;;;;;;3.60;2.10;;;;;;;22.15;52.15;100583.03;5027322;28;20422;-73
2022/07/19 04:55:14;;;;;;;6.32;2.58;;;;;;;22.14;52.10;100579.47;5059858;28;20403;-73
2022/07/19 04:57:39;;;;;;;5.13;2.20;;;;;;;22.05;52.11;100583.31;5037577;28;20937;-74
2022/07/19 05:00:09;;;;;;;6.20;1.93;;;;;;;22.08;52.14;100577.97;5026882;28;20759;-73
2022/07/19 05:02:34;;;;;;;4.43;2.10;;;;;;;22.12;51.92;100573.44;5031207;28;20410;-73
2022/07/19 05:04:59;;;;;;;3.83;1.85;;;;;;;22.18;51.88;100574.13;5030761;28;20395;-73
2022/07/19 05:07:25;;;;;;;6.67;2.33;;;;;;;22.14;51.98;100584.16;5031501;28;20457;-73
2022/07/19 05:09:50;;;;;;;3.87;2.27;;;;;;;22.16;52.10;100579.16;5027152;28;20413;-73
2022/07/19 05:12:15;;;;;;;2.83;2.20;;;;;;;22.13;52.00;100591.63;5044745;28;20946;-73
2022/07/19 05:14:40;;;;;;;5.70;2.40;;;;;;;22.10;52.03;100580.41;5041144;28;20411;-73
2022/07/19 05:17:06;;;;;;;3.90;2.47;;;;;;;22.18;51.57;100576.88;5030167;28;20416;-73
2022/07/19 05:19:31;;;;;;;3.00;1.90;;;;;;;22.20;51.32;100578.19;5030943;28;20453;-73
2022/07/19 05:21:56;;;;;;;9.67;2.57;;;;;;;22.19;51.47;100578.50;5036724;28;20409;-73
2022/07/19 05:24:22;;;;;;;4.43;2.10;;;;;;;22.21;51.31;100576.22;5034475;28;20410;-74
2022/07/19 05:26:47;;;;;;;4.38;1.80;;;;;;;22.27;51.00;100580.47;5031460;28;20390;-73
2022/07/19 05:29:13;;;;;;;5.63;2.10;;;;;;;22.27;50.95;100576.91;5032314;28;20407;-74
2022/07/19 05:31:38;;;;;;;2.57;1.77;;;;;;;22.28;50.82;100581.28;5034348;28;20426;-73
2022/07/19 05:34:03;;;;;;;6.83;2.60;;;;;;;22.30;50.53;100579.84;5030434;28;20403;-73
2022/07/19 05:36:29;;;;;;;5.32;2.35;;;;;;;22.36;50.13;100578.53;5031019;28;20418;-73
2022/07/19 05:38:55;;;;;;;6.03;2.00;;;;;;;22.45;50.03;100573.06;5031148;28;20442;-73
2022/07/19 05:41:21;;;;;;;2.20;1.73;;;;;;;22.50;49.63;100567.38;5031337;28;20399;-72
2022/07/19 05:43:48;;;;;;;2.35;2.10;;;;;;;22.56;49.50;100575.19;5029945;28;20489;-72
2022/07/19 05:46:13;;;;;;;10.38;2.40;;;;;;;22.52;49.45;100579.75;5030710;28;20407;-73
2022/07/19 05:48:38;;;;;;;2.60;1.87;;;;;;;22.56;49.24;100583.47;5046139;28;20908;-73
2022/07/19 05:51:04;;;;;;;4.90;1.73;;;;;;;22.60;48.77;100584.47;5031222;28;20391;-73
2022/07/19 05:53:29;;;;;;;5.13;2.22;;;;;;;22.64;48.07;100582.69;5030936;28;20456;-73
2022/07/19 05:55:55;;;;;;;10.67;2.33;;;;;;;22.67;47.95;100584.03;5029778;28;20407;-73
2022/07/19 05:58:21;;;;;;;3.97;2.10;;;;;;;22.62;47.73;100581.41;5029687;28;20450;-73
2022/07/19 06:03:30;;;;;;;8.23;2.10;;;;;;;22.64;47.61;100585.47;5031316;28;20401;-73
2022/07/19 06:05:56;;;;;;;6.35;2.05;;;;;;;22.71;47.48;100587.78;5046058;28;20498;-73
2022/07/19 06:08:21;;;;;;;6.27;2.10;;;;;;;22.73;47.38;100586.31;5031144;28;21052;-72
2022/07/19 06:10:46;;;;;;;11.00;2.30;;;;;;;22.72;47.33;100581.91;5029818;28;20399;-72
2022/07/19 06:13:12;;;;;;;9.17;2.07;;;;;;;22.76;47.38;100587.59;5044688;28;20447;-73
2022/07/19 06:15:37;;;;;;;3.33;1.93;;;;;;;22.82;46.97;100588.28;5032964;28;20422;-73
2022/07/19 06:18:02;;;;;;;3.60;1.87;;;;;;;22.86;47.24;100595.59;5034634;28;20391;-73
2022/07/19 06:20:27;;;;;;;7.47;2.22;;;;;;;22.93;46.94;100592.34;5034740;28;20424;-72
2022/07/19 06:22:53;;;;;;;6.00;1.90;;;;;;;22.95;46.88;100596.44;5033618;28;20483;-72
2022/07/19 06:25:18;;;;;;;4.47;2.10;;;;;;;22.95;46.61;100599.19;5037684;28;20402;-73
2022/07/19 06:27:45;;;;;;;4.67;1.67;;;;;;;23.05;46.31;100603.59;5038405;28;20443;-72
2022/07/19 06:30:10;;;;;;;2.43;2.03;;;;;;;23.11;46.13;100597.56;5034140;28;20430;-73
2022/07/19 06:32:36;;;;;;;3.85;1.77;;;;;;;23.14;45.94;100594.16;5046028;28;20411;-73
2022/07/19 06:35:01;;;;;;;4.43;2.03;;;;;;;23.18;45.71;100589.59;5036025;28;20403;-74
2022/07/19 06:37:26;;;;;;;5.53;1.93;;;;;;;23.22;45.55;100592.50;5035484;28;20414;-73
2022/07/19 06:39:51;;;;;;;2.57;1.80;;;;;;;23.27;45.70;100597.91;5038710;28;20453;-74
2022/07/19 06:42:17;;;;;;;4.43;2.07;;;;;;;23.33;45.37;100596.59;5035244;28;20410;-73
2022/07/19 06:44:42;;;;;;;4.97;1.63;;;;;;;23.37;45.27;100591.22;5035402;28;20443;-73
2022/07/19 06:47:07;;;;;;;4.33;1.83;;;;;;;23.41;45.26;100593.03;5049003;28;20410;-73
2022/07/19 06:49:32;;;;;;;3.20;2.03;;;;;;;23.47;45.40;100590.91;5025007;28;20409;-73
2022/07/19 06:51:58;;;;;;;7.10;1.80;;;;;;;23.51;45.40;100591.88;5026189;28;20407;-73
2022/07/19 06:54:23;;;;;;;2.93;1.80;;;;;;;23.56;45.29;100591.72;5033844;28;20403;-73
2022/07/19 06:56:48;;;;;;;1.83;1.83;;;;;;;23.64;45.22;100588.13;5032968;28;20433;-74
2022/07/19 06:59:14;;;;;;;3.78;1.80;;;;;;;23.71;45.41;100586.47;5033761;28;20410;-73
2022/07/19 07:01:39;;;;;;;3.50;2.20;;;;;;;23.75;45.23;100590.19;5038566;28;20409;-73
2022/07/19 07:04:04;;;;;;;4.80;2.10;;;;;;;23.82;45.18;100584.16;5036321;28;20407;-73
2022/07/19 07:06:29;;;;;;;3.57;1.43;;;;;;;23.89;45.14;100589.19;5048060;28;20423;-73
2022/07/19 07:08:55;;;;;;;2.20;1.77;;;;;;;23.97;45.03;100594.72;5034975;28;20766;-74
2022/07/19 07:11:20;;;;;;;4.30;1.90;;;;;;;24.02;45.33;100591.75;5033153;28;20418;-73
2022/07/19 07:13:45;;;;;;;4.00;2.37;;;;;;;24.06;45.14;100589.13;5040785;28;20393;-73
2022/07/19 07:16:11;;;;;;;4.80;2.00;;;;;;;24.10;45.74;100598.41;5036371;28;20411;-73
2022/07/19 07:18:36;;;;;;;4.47;2.63;;;;;;;24.13;45.60;100595.81;5032134;28;20878;-73
2022/07/19 07:21:01;;;;;;;4.50;2.03;;;;;;;24.20;45.50;100587.78;5034537;28;20415;-73
2022/07/19 07:23:26;;;;;;;8.15;2.10;;;;;;;24.27;45.92;100587.25;5032699;28;20477;-73
2022/07/19 07:25:53;;;;;;;3.97;2.00;;;;;;;24.33;45.85;100591.50;5030155;28;20530;-74
2022/07/19 07:28:19;;;;;;;5.70;1.97;;;;;;;24.38;45.94;100584.94;5031005;28;20407;-73
2022/07/19 07:30:44;;;;;;;4.90;1.95;;;;;;;24.46;45.99;100582.13;5033538;28;20415;-73
2022/07/19 07:33:09;;;;;;;4.63;2.00;;;;;;;24.54;46.09;100585.97;5031062;28;20414;-73
2022/07/19 07:35:35;;;;;;;3.17;1.93;;;;;;;24.56;46.23;100581.75;5065005;28;20468;-73
2022/07/19 07:38:00;;;;;;;5.80;1.80;;;;;;;24.61;46.33;100573.22;5033932;28;20399;-73
2022/07/19 07:40:25;;;;;;;2.53;1.83;;;;;;;24.65;46.53;100576.97;5033326;28;20414;-73
2022/07/19 07:42:51;;;;;;;3.60;1.80;;;;;;;24.70;46.74;100575.94;5043533;28;20403;-74
2022/07/19 07:45:16;;;;;;;5.07;2.00;;;;;;;24.74;46.48;100566.63;5030935;28;20437;-73
2022/07/19 07:47:41;;;;;;;3.93;1.90;;;;;;;24.80;46.52;100568.03;5033117;28;20411;-73
2022/07/19 07:50:07;;;;;;;2.72;1.60;;;;;;;24.92;46.21;100563.75;5032741;28;20410;-74
2022/07/19 07:52:33;;;;;;;5.47;1.60;;;;;;;25.01;46.48;100573.63;5030082;28;20415;-73
2022/07/19 07:54:58;;;;;;;6.10;1.80;;;;;;;25.06;46.38;100572.63;5032297;28;20460;-73
2022/07/19 07:57:23;;;;;;;3.73;1.70;;;;;;;25.13;46.47;100567.31;5029384;28;20457;-74
2022/07/19 07:59:48;;;;;;;9.20;2.20;;;;;;;25.23;46.42;100567.72;5028303;28;20406;-73
2022/07/19 08:02:14;;;;;;;3.47;2.10;;;;;;;25.30;46.00;100565.22;5020353;28;20387;-73
2022/07/19 08:04:39;;;;;;;4.55;1.70;;;;;;;25.36;45.53;100548.38;5037219;28;20408;-73
2022/07/19 08:07:04;;;;;;;8.20;2.43;;;;;;;25.40;45.75;100549.28;5032794;28;20419;-73
2022/07/19 08:09:31;;;;;;;3.97;1.87;;;;;;;25.43;45.48;100549.41;5031121;28;20415;-73
2022/07/19 08:11:56;;;;;;;4.53;1.90;;;;;;;25.48;45.59;100552.00;5031264;28;20403;-75
2022/07/19 08:14:22;;;;;;;3.90;1.87;;;;;;;25.62;45.01;100548.94;5032210;28;20483;-73
2022/07/19 08:16:47;;;;;;;4.57;2.03;;;;;;;25.67;45.06;100543.97;5032376;28;20413;-73
2022/07/19 08:19:12;;;;;;;8.83;1.90;;;;;;;25.74;45.24;100537.88;5031044;28;20430;-73
2022/07/19 08:21:38;;;;;;;4.55;2.03;;;;;;;25.84;44.84;100539.38;5041462;28;20426;-73
2022/07/19 08:24:04;;;;;;;3.03;1.63;;;;;;;25.92;44.65;100535.69;5047754;28;20391;-73
2022/07/19 08:26:31;;;;;;;2.92;1.88;;;;;;;26.01;45.04;100540.00;5029870;28;20422;-74
2022/07/19 08:28:56;;;;;;;4.88;2.13;;;;;;;26.09;44.90;100539.06;5033011;28;20486;-73
2022/07/19 08:31:22;;;;;;;3.88;2.10;;;;;;;26.22;44.63;100529.59;5030924;28;20416;-73
2022/07/19 08:33:47;;;;;;;3.87;1.70;;;;;;;26.36;44.47;100522.88;5030979;28;20404;-73
2022/07/19 08:36:13;;;;;;;6.23;2.07;;;;;;;26.48;43.74;100525.63;5032179;28;20476;-74
2022/07/19 08:38:39;;;;;;;2.17;1.60;;;;;;;26.66;43.85;100521.44;5064222;28;20411;-73
2022/07/19 08:41:04;;;;;;;5.70;2.05;;;;;;;26.82;43.10;100516.78;5032306;28;20876;-73
2022/07/19 08:43:30;;;;;;;3.77;1.80;;;;;;;26.94;43.22;100513.19;5031369;28;20395;-73
2022/07/19 08:45:59;;;;;;;3.67;1.70;;;;;;;27.06;42.74;100518.69;5030978;28;20407;-74
2022/07/19 08:48:26;;;;;;;4.32;1.70;;;;;;;27.20;42.56;100513.53;5032044;28;20387;-74
2022/07/19 08:50:53;;;;;;;2.15;1.52;;;;;;;27.36;42.15;100511.59;5031944;28;20449;-74
2022/07/19 08:53:18;;;;;;;2.35;1.85;;;;;;;27.52;41.94;100515.25;5031326;28;20909;-73
2022/07/19 08:55:44;;;;;;;1.93;1.70;;;;;;;27.65;41.52;100518.75;5031404;28;20411;-73
2022/07/19 08:58:09;;;;;;;3.53;1.50;;;;;;;27.77;41.31;100519.47;5029763;28;20446;-72
2022/07/19 09:00:34;;;;;;;3.80;2.50;;;;;;;27.88;40.91;100511.41;5016167;28;20408;-72
2022/07/19 09:03:02;;;;;;;2.40;1.53;;;;;;;28.01;40.20;100518.50;5030625;28;20407;-73
2022/07/19 09:05:28;;;;;;;2.03;1.42;;;;;;;28.13;39.77;100510.06;5021717;28;20407;-72
2022/07/19 09:08:13;;;;;;;1.70;1.60;;;;;;;28.27;39.50;100513.19;5030571;28;20431;-73
2022/07/19 09:10:41;;;;;;;3.67;1.77;;;;;;;28.44;39.12;100511.19;5030993;28;20411;-72
2022/07/19 09:13:11;;;;;;;1.45;1.35;;;;;;;28.59;38.49;100508.34;5030545;28;20938;-72
2022/07/19 09:15:54;;;;;;;1.52;1.50;;;;;;;28.73;38.28;100510.66;5031008;28;20418;-72
2022/07/19 09:18:21;;;;;;;1.83;1.73;;;;;;;28.94;37.77;100513.91;5031589;28;20395;-73
2022/07/19 09:20:49;;;;;;;5.18;1.63;;;;;;;29.07;37.37;100512.59;5031624;28;20886;-72
2022/07/19 09:23:15;;;;;;;4.05;1.10;;;;;;;29.27;36.14;100510.63;5030709;28;20407;-72
2022/07/19 09:25:50;;;;;;;2.63;1.40;;;;;;;29.46;35.52;100505.00;5031120;28;20406;-72
2022/07/19 09:28:19;;;;;;;3.97;1.57;;;;;;;29.68;35.15;100508.97;5029391;28;20406;-72
2022/07/19 09:30:49;;;;;;;2.65;1.30;;;;;;;29.88;34.65;100504.16;5029940;28;20399;-72
2022/07/19 09:33:18;;;;;;;2.70;1.58;;;;;;;30.05;35.37;100507.25;5030283;28;20759;-72
2022/07/19 09:35:46;;;;;;;3.88;1.50;;;;;;;30.22;34.85;100500.34;5029331;28;20411;-73
2022/07/19 09:38:20;;;;;;;7.72;1.83;;;;;;;30.36;34.30;100504.16;5031497;28;20414;-72
2022/07/19 09:40:47;;;;;;;2.03;1.10;;;;;;;30.48;34.24;100505.16;5019995;28;20419;-72
2022/07/19 09:43:13;;;;;;;5.60;1.80;;;;;;;30.62;33.52;100497.78;5029750;28;20398;-72
2022/07/19 09:45:38;;;;;;;5.80;1.80;;;;;;;30.82;33.21;100492.84;5033074;28;20867;-72
2022/07/19 09:48:04;;;;;;;1.50;1.40;;;;;;;31.00;32.89;100493.88;5019121;28;20407;-72
2022/07/19 09:50:29;;;;;;;4.82;1.52;;;;;;;31.19;32.66;100482.50;5033166;28;20399;-72
2022/07/19 09:52:58;;;;;;;7.68;2.00;;;;;;;31.32;32.01;100477.44;5035224;28;20418;-73
2022/07/19 09:55:24;;;;;;;2.67;1.38;;;;;;;31.48;31.10;100488.41;5035020;28;20828;-72
2022/07/19 09:57:51;;;;;;;1.05;1.00;;;;;;;31.74;29.73;100475.09;5033546;28;20415;-72
2022/07/19 10:00:22;;;;;;;1.52;0.98;;;;;;;32.12;28.55;100473.00;5034147;28;20437;-73
2022/07/19 10:02:52;;;;;;;2.00;1.00;;;;;;;32.52;26.03;100472.06;5035035;28;20389;-72
2022/07/19 10:05:18;;;;;;;3.17;1.10;;;;;;;32.99;26.35;100477.53;5034980;28;20382;-73
2022/07/19 10:07:44;;;;;;;1.93;0.93;;;;;;;33.52;25.79;100479.69;5019724;28;20735;-72
2022/07/19 10:10:12;;;;;;;2.50;1.25;;;;;;;33.92;24.56;100470.88;5034216;28;20407;-73
2022/07/19 10:12:43;;;;;;;0.75;0.75;;;;;;;34.31;23.45;100468.88;5031706;28;20407;-72
2022/07/19 10:15:11;;;;;;;1.65;1.00;;;;;;;35.20;22.52;100469.38;5034485;28;20403;-72
2022/07/19 10:17:58;;;;;;;2.53;0.82;;;;;;;36.41;19.63;100464.38;5034878;28;20435;-72
2022/07/19 10:20:25;;;;;;;3.70;1.15;;;;;;;37.71;18.26;100465.91;5034496;28;20401;-72
2022/07/19 10:22:51;;;;;;;0.88;0.88;;;;;;;38.66;17.58;100469.84;5034064;28;20403;-72
2022/07/19 10:25:17;;;;;;;2.60;1.00;;;;;;;39.38;16.69;100467.09;5034455;28;20395;-73
2022/07/19 10:27:45;;;;;;;0.93;0.93;;;;;;;40.18;16.42;100462.69;5034795;28;20394;-72
2022/07/19 10:30:10;;;;;;;1.33;1.07;;;;;;;40.76;15.36;100461.44;5034257;28;20490;-73
2022/07/19 10:32:37;;;;;;;1.80;1.00;;;;;;;40.73;14.64;100456.66;5045054;28;20426;-73
2022/07/19 10:35:23;;;;;;;3.95;0.98;;;;;;;41.12;14.28;100458.34;5034418;28;20884;-73
2022/07/19 10:37:49;;;;;;;4.13;1.10;;;;;;;41.83;13.98;100456.88;5032792;28;20407;-72
2022/07/19 10:40:44;;;;;;;2.33;1.23;;;;;;;42.66;13.33;100455.56;5034394;28;20468;-72
2022/07/19 10:43:11;;;;;;;3.25;1.02;;;;;;;43.35;12.57;100450.41;5034465;28;20392;-73
2022/07/19 10:45:38;;;;;;;1.85;0.80;;;;;;;43.80;12.25;100453.47;5034363;28;20731;-73
2022/07/19 10:48:06;;;;;;;1.13;1.10;;;;;;;44.19;11.70;100439.56;5034399;28;20395;-72
2022/07/19 10:50:52;;;;;;;5.40;1.55;;;;;;;44.26;11.79;100448.59;5033695;28;20403;-73
2022/07/19 10:53:39;;;;;;;4.47;1.60;;;;;;;44.58;11.13;100446.41;5030972;28;20461;-72
2022/07/19 10:56:40;;;;;;;1.98;0.90;;;;;;;44.78;10.84;100438.91;5049242;28;20415;-72
2022/07/19 10:59:11;;;;;;;1.40;1.02;;;;;;;45.13;11.21;100422.09;5024519;28;20444;-73
2022/07/19 11:01:39;;;;;;;3.60;1.13;;;;;;;44.95;11.60;100424.25;5032857;28;20461;-73
2022/07/19 11:04:34;;;;;;;1.13;1.08;;;;;;;45.26;10.69;100431.28;5032069;28;20407;-73
2022/07/19 11:07:10;;;;;;;2.65;1.00;;;;;;;45.72;10.16;100423.28;5019773;28;20415;-73
2022/07/19 11:09:57;;;;;;;3.30;0.95;;;;;;;45.93;9.79;100421.38;5033959;28;20449;-73
2022/07/19 11:12:26;;;;;;;1.27;0.80;;;;;;;46.30;10.02;100411.22;5032450;28;20430;-72
2022/07/19 11:14:52;;;;;;;2.97;1.10;;;;;;;46.46;9.58;100412.06;5033544;28;20399;-73
2022/07/19 11:17:18;;;;;;;3.85;1.23;;;;;;;46.13;9.94;100401.50;5031390;28;20739;-73
2022/07/19 11:19:58;;;;;;;1.53;1.10;;;;;;;46.13;9.73;100404.38;5024467;28;20411;-73
2022/07/19 11:22:23;;;;;;;1.40;1.20;;;;;;;46.69;9.28;100399.69;5029278;28;20403;-72
2022/07/19 11:24:48;;;;;;;1.50;1.10;;;;;;;46.93;9.26;100391.81;5036637;28;20956;-70